createdAt,value
2018-12-17T00:01:46.786Z,101543.48
2018-12-17T00:04:16.114Z,101546.09
2018-12-17T00:06:45.438Z,101540.91
2018-12-17T00:09:14.713Z,101540.91
2018-12-17T00:11:44.008Z,101537.90
2018-12-17T00:14:13.285Z,101537.47
2018-12-17T00:16:42.599Z,101547.50
2018-12-17T00:19:11.953Z,101542.68
2018-12-17T00:21:41.261Z,101540.50
2018-12-17T00:24:10.690Z,101541.38
2018-12-17T00:26:39.944Z,101543.95
2018-12-17T00:29:09.219Z,101543.08
2018-12-17T00:31:38.478Z,101540.03
2018-12-17T00:34:07.800Z,101540.91
2018-12-17T00:36:37.059Z,101537.00
2018-12-17T00:39:07.638Z,101535.25
2018-12-17T00:41:36.995Z,101530.47
2018-12-17T00:44:06.435Z,101534.83
2018-12-17T00:46:35.802Z,101533.16
2018-12-17T00:49:05.053Z,101535.30
2018-12-17T00:51:34.335Z,101533.16
2018-12-17T00:54:03.695Z,101540.11
2018-12-17T00:56:33.070Z,101543.18
2018-12-17T00:59:02.317Z,101549.30
2018-12-17T01:01:31.641Z,101551.94
2018-12-17T01:04:00.999Z,101544.12
2018-12-17T01:06:30.317Z,101554.55
2018-12-17T01:08:59.597Z,101552.00
2018-12-17T01:11:28.883Z,101552.04
2018-12-17T01:13:58.158Z,101554.24
2018-12-17T01:16:27.481Z,101553.38
2018-12-17T01:18:56.725Z,101563.38
2018-12-17T01:21:26.044Z,101562.94
2018-12-17T01:23:55.325Z,101566.89
2018-12-17T01:26:24.744Z,101558.63
2018-12-17T01:28:54.028Z,101562.94
2018-12-17T01:31:23.311Z,101566.85
2018-12-17T01:33:52.579Z,101565.52
2018-12-17T01:36:21.891Z,101576.82
2018-12-17T01:38:51.201Z,101572.47
2018-12-17T01:41:20.481Z,101571.60
2018-12-17T01:43:49.755Z,101575.95
2018-12-17T01:46:19.137Z,101577.25
2018-12-17T01:48:48.459Z,101577.22
2018-12-17T01:51:17.744Z,101582.44
2018-12-17T01:53:47.065Z,101583.75
2018-12-17T01:56:16.437Z,101588.99
2018-12-17T01:58:45.776Z,101588.56
2018-12-17T02:01:15.154Z,101592.00
2018-12-17T02:03:44.425Z,101588.09
2018-12-17T02:06:13.727Z,101589.83
2018-12-17T02:08:42.987Z,101582.87
2018-12-17T02:11:12.343Z,101581.10
2018-12-17T02:13:41.642Z,101575.92
2018-12-17T02:16:10.932Z,101577.22
2018-12-17T02:18:40.219Z,101575.52
2018-12-17T02:21:09.553Z,101572.44
2018-12-17T02:23:38.779Z,101578.53
2018-12-17T02:26:27.512Z,101574.61
2018-12-17T02:28:56.798Z,101574.21
2018-12-17T02:31:26.091Z,101568.06
2018-12-17T02:33:55.369Z,101573.28
2018-12-17T02:36:24.731Z,101570.23
2018-12-17T02:38:54.103Z,101574.98
2018-12-17T02:41:23.402Z,101570.20
2018-12-17T02:43:52.674Z,101572.81
2018-12-17T02:46:22.011Z,101571.50
2018-12-17T02:48:51.333Z,101577.22
2018-12-17T02:51:20.604Z,101587.22
2018-12-17T02:53:49.935Z,101591.13
2018-12-17T02:56:19.323Z,101586.82
2018-12-17T02:58:48.640Z,101595.12
2018-12-17T03:01:17.900Z,101594.65
2018-12-17T03:03:47.200Z,101600.77
2018-12-17T03:06:16.534Z,101606.89
2018-12-17T03:08:45.859Z,101602.14
2018-12-17T03:11:15.222Z,101596.09
2018-12-17T03:13:44.545Z,101601.73
2018-12-17T03:16:13.862Z,101606.09
2018-12-17T03:18:43.172Z,101610.94
2018-12-17T03:21:12.543Z,101617.46
2018-12-17T03:23:41.847Z,101618.77
2018-12-17T03:26:11.138Z,101619.64
2018-12-17T03:28:40.384Z,101615.28
2018-12-17T03:31:09.652Z,101621.84
2018-12-17T03:33:38.902Z,101633.15
2018-12-17T03:36:08.178Z,101637.50
2018-12-17T03:38:37.538Z,101640.58
2018-12-17T03:41:06.865Z,101637.53
2018-12-17T03:43:36.132Z,101650.25
2018-12-17T03:46:05.452Z,101647.14
2018-12-17T03:48:34.705Z,101649.28
2018-12-17T03:51:04.065Z,101657.11
2018-12-17T03:53:33.446Z,101661.83
2018-12-17T03:56:02.752Z,101652.69
2018-12-17T03:58:32.043Z,101663.16
2018-12-17T04:01:01.366Z,101670.13
2018-12-17T04:03:30.744Z,101674.47
2018-12-17T04:06:00.063Z,101675.34
2018-12-17T04:08:29.338Z,101681.00
2018-12-17T04:10:58.621Z,101674.47
2018-12-17T04:13:27.939Z,101677.12
2018-12-17T04:15:57.192Z,101677.98
2018-12-17T04:18:26.512Z,101677.95
2018-12-17T04:20:55.852Z,101673.57
2018-12-17T04:23:25.147Z,101675.34
2018-12-17T04:25:54.428Z,101672.73
2018-12-17T04:28:23.712Z,101677.48
2018-12-17T04:30:53.047Z,101682.27
2018-12-17T04:33:22.390Z,101687.92
2018-12-17T04:35:51.721Z,101680.53
2018-12-17T04:38:20.981Z,101688.43
2018-12-17T04:40:50.221Z,101691.88
2018-12-17T04:43:19.528Z,101690.53
2018-12-17T04:45:48.877Z,101700.53
2018-12-17T04:48:18.181Z,101696.15
2018-12-17T04:50:47.421Z,101697.45
2018-12-17T04:53:16.668Z,101699.66
2018-12-17T04:55:45.956Z,101699.66
2018-12-17T04:58:15.244Z,101703.58
2018-12-17T05:00:44.571Z,101706.19
2018-12-17T05:03:13.899Z,101714.41
2018-12-17T05:05:43.163Z,101718.33
2018-12-17T05:08:12.458Z,101712.67
2018-12-17T05:10:41.745Z,101720.50
2018-12-17T05:13:11.090Z,101712.24
2018-12-17T05:15:40.382Z,101718.33
2018-12-17T05:18:09.685Z,101723.11
2018-12-17T05:20:38.937Z,101721.41
2018-12-17T05:23:08.205Z,101723.98
2018-12-17T05:25:37.570Z,101737.06
2018-12-17T05:28:07.002Z,101734.46
2018-12-17T05:30:36.315Z,101733.12
2018-12-17T05:33:05.646Z,101730.11
2018-12-17T05:35:35.826Z,101744.06
2018-12-17T05:38:05.255Z,101746.68
2018-12-17T05:40:34.623Z,101749.72
2018-12-17T05:43:03.909Z,101756.64
2018-12-17T05:45:33.229Z,101759.25
2018-12-17T05:48:02.509Z,101759.65
2018-12-17T05:50:31.779Z,101764.43
2018-12-17T05:53:01.029Z,101763.60
2018-12-17T05:55:30.447Z,101760.56
2018-12-17T05:57:59.741Z,101764.91
2018-12-17T06:00:29.114Z,101770.13
2018-12-17T06:02:58.398Z,101770.17
2018-12-17T06:05:27.684Z,101772.37
2018-12-17T06:07:59.925Z,101782.86
2018-12-17T06:10:29.227Z,101791.95
2018-12-17T06:12:58.505Z,101786.77
2018-12-17T06:15:27.846Z,101786.37
2018-12-17T06:17:57.195Z,101787.64
2018-12-17T06:20:26.633Z,101788.08
2018-12-17T06:22:55.902Z,101791.16
2018-12-17T06:25:25.242Z,101794.21
2018-12-17T06:27:54.565Z,101793.81
2018-12-17T06:30:23.852Z,101792.91
2018-12-17T06:32:53.227Z,101801.21
2018-12-17T06:35:22.507Z,101805.16
2018-12-17T06:37:51.837Z,101803.03
2018-12-17T06:40:21.137Z,101804.77
2018-12-17T06:42:50.539Z,101799.15
2018-12-17T06:45:19.823Z,101802.23
2018-12-17T06:47:49.155Z,101797.92
2018-12-17T06:50:18.415Z,101794.88
2018-12-17T06:52:47.753Z,101793.17
2018-12-17T06:55:17.154Z,101789.25
2018-12-17T06:57:46.421Z,101794.52
2018-12-17T07:00:15.718Z,101796.29
2018-12-17T07:02:44.979Z,101792.41
2018-12-17T07:05:14.245Z,101794.59
2018-12-17T07:07:43.579Z,101805.47
2018-12-17T07:10:12.931Z,101815.04
2018-12-17T07:12:42.265Z,101819.80
2018-12-17T07:15:11.728Z,101822.01
2018-12-17T07:17:41.078Z,101820.27
2018-12-17T07:20:10.363Z,101824.58
2018-12-17T07:22:39.636Z,101831.95
2018-12-17T07:25:08.975Z,101837.64
2018-12-17T07:27:38.373Z,101841.16
2018-12-17T07:30:08.401Z,101844.54
2018-12-17T07:32:38.066Z,101843.14
2018-12-17T07:35:07.691Z,101844.76
2018-12-17T07:37:36.873Z,101846.47
2018-12-17T07:40:06.959Z,101848.13
2018-12-17T07:42:36.479Z,101851.52
2018-12-17T07:45:06.218Z,101864.08
2018-12-17T07:47:35.496Z,101863.55
2018-12-17T07:50:05.709Z,101864.74
2018-12-17T07:52:35.355Z,101866.85
2018-12-17T07:55:05.138Z,101861.16
2018-12-17T07:57:34.438Z,101861.08
2018-12-17T08:00:03.915Z,101861.52
2018-12-17T08:02:33.219Z,101866.74
2018-12-17T08:05:02.593Z,101865.04
2018-12-17T08:07:31.863Z,101865.04
2018-12-17T08:10:01.327Z,101864.60
2018-12-17T08:12:30.684Z,101867.69
2018-12-17T08:15:00.201Z,101872.11
2018-12-17T08:17:29.588Z,101869.06
2018-12-17T08:19:58.875Z,101865.22
2018-12-17T08:22:28.329Z,101863.95
2018-12-17T08:24:57.705Z,101873.13
2018-12-17T08:27:27.459Z,101882.74
2018-12-17T08:30:03.734Z,101883.58
2018-12-17T08:32:26.055Z,101880.13
2018-12-17T08:34:55.323Z,101888.80
2018-12-17T08:37:24.635Z,101888.88
2018-12-17T08:39:53.913Z,101886.66
2018-12-17T08:42:23.513Z,101885.80
2018-12-17T08:44:52.862Z,101888.88
2018-12-17T08:47:22.257Z,101894.54
2018-12-17T08:49:51.483Z,101891.96
2018-12-17T08:52:20.779Z,101891.16
2018-12-17T08:54:50.083Z,101884.66
2018-12-17T08:57:19.387Z,101887.37
2018-12-17T08:59:48.665Z,101889.55
2018-12-17T09:02:17.983Z,101893.06
2018-12-17T09:04:47.341Z,101893.94
2018-12-17T09:07:16.751Z,101893.06
2018-12-17T09:09:46.078Z,101881.77
2018-12-17T09:12:15.469Z,101886.16
2018-12-17T09:14:44.852Z,101890.58
2018-12-17T09:17:14.155Z,101886.66
2018-12-17T09:19:43.503Z,101888.43
2018-12-17T09:22:12.851Z,101897.14
2018-12-17T09:24:42.163Z,101895.06
2018-12-17T09:27:11.422Z,101902.50
2018-12-17T09:29:40.773Z,101899.91
2018-12-17T09:32:10.112Z,101905.14
2018-12-17T09:34:39.430Z,101911.30
2018-12-17T09:37:08.759Z,101914.86
2018-12-17T09:39:38.121Z,101917.59
2018-12-17T09:42:07.383Z,101908.02
2018-12-17T09:44:36.694Z,101915.44
2018-12-17T09:47:05.986Z,101922.47
2018-12-17T09:49:35.262Z,101930.38
2018-12-17T09:52:04.516Z,101927.38
2018-12-17T09:54:33.886Z,101919.11
2018-12-17T09:57:03.237Z,101917.91
2018-12-17T09:59:32.572Z,101919.70
2018-12-17T10:02:01.858Z,101919.80
2018-12-17T10:04:31.192Z,101920.75
2018-12-17T10:07:00.562Z,101924.68
2018-12-17T10:09:29.918Z,101920.75
2018-12-17T10:11:59.263Z,101925.55
2018-12-17T10:14:28.595Z,101926.03
2018-12-17T10:16:58.147Z,101929.98
2018-12-17T10:19:27.400Z,101921.23
2018-12-17T10:21:56.745Z,101923.41
2018-12-17T10:24:26.004Z,101928.23
2018-12-17T10:26:55.302Z,101926.03
2018-12-17T10:29:24.638Z,101935.70
2018-12-17T10:31:53.970Z,101938.70
2018-12-17T10:34:23.433Z,101938.73
2018-12-17T10:36:52.734Z,101935.17
2018-12-17T10:39:22.185Z,101928.63
2018-12-17T10:41:51.487Z,101930.81
2018-12-17T10:44:20.822Z,101928.23
2018-12-17T10:46:50.141Z,101915.16
2018-12-17T10:49:19.420Z,101924.77
2018-12-17T10:51:48.735Z,101915.17
2018-12-17T10:54:18.021Z,101916.96
2018-12-17T10:56:47.347Z,101917.02
2018-12-17T10:59:16.591Z,101909.61
2018-12-17T11:02:07.655Z,101914.45
2018-12-17T11:04:49.262Z,101916.67
2018-12-17T11:07:18.533Z,101917.58
2018-12-17T11:09:47.797Z,101914.09
2018-12-17T11:12:17.120Z,101912.38
2018-12-17T11:14:46.582Z,101917.16
2018-12-17T11:17:15.828Z,101914.97
2018-12-17T11:19:45.174Z,101901.42
2018-12-17T11:22:14.454Z,101909.28
2018-12-17T11:24:43.760Z,101903.15
2018-12-17T11:27:13.130Z,101913.64
2018-12-17T11:29:42.885Z,101913.16
2018-12-17T11:32:12.129Z,101920.19
2018-12-17T11:34:41.483Z,101907.94
2018-12-17T11:37:10.839Z,101909.72
2018-12-17T11:39:40.182Z,101908.42
2018-12-17T11:42:09.433Z,101906.70
2018-12-17T11:44:38.775Z,101902.78
2018-12-17T11:47:08.065Z,101855.47
2018-12-17T11:49:37.467Z,101900.61
2018-12-17T11:52:06.869Z,101902.42
2018-12-17T11:54:36.193Z,101892.34
2018-12-17T11:58:14.651Z,101900.25
2018-12-17T12:01:04.158Z,101899.86
2018-12-17T12:03:35.469Z,101895.95
2018-12-17T12:06:04.773Z,101900.38
2018-12-17T12:08:34.145Z,101902.59
2018-12-17T12:11:03.510Z,101908.77
2018-12-17T12:13:32.800Z,101901.80
2018-12-17T12:16:02.173Z,101903.53
2018-12-17T12:18:31.527Z,101898.73
2018-12-17T12:21:00.854Z,101899.61
2018-12-17T12:23:30.983Z,101895.67
2018-12-17T12:26:00.367Z,101906.61
2018-12-17T12:28:29.631Z,101907.50
2018-12-17T12:31:00.565Z,101907.06
2018-12-17T12:33:28.190Z,101902.23
2018-12-17T12:35:57.485Z,101901.36
2018-12-17T12:38:26.830Z,101895.63
2018-12-17T12:40:56.161Z,101889.02
2018-12-17T12:43:25.457Z,101889.45
2018-12-17T12:45:54.734Z,101886.83
2018-12-17T12:48:24.037Z,101902.64
2018-12-17T12:50:53.395Z,101895.66
2018-12-17T12:53:25.621Z,101895.66
2018-12-17T12:55:54.935Z,101896.09
2018-12-17T12:58:24.285Z,101901.34
2018-12-17T13:00:53.593Z,101904.84
2018-12-17T13:03:22.883Z,101900.48
2018-12-17T13:05:52.187Z,101912.73
2018-12-17T13:08:21.469Z,101921.93
2018-12-17T13:10:50.874Z,101914.51
2018-12-17T13:13:20.187Z,101926.75
2018-12-17T13:15:49.703Z,101917.11
2018-12-17T13:18:19.011Z,101920.19
2018-12-17T13:20:48.305Z,101921.51
2018-12-17T13:23:17.649Z,101925.00
2018-12-17T13:25:49.975Z,101926.33
2018-12-17T13:28:19.393Z,101926.31
2018-12-17T13:30:48.664Z,101924.12
2018-12-17T13:33:17.997Z,101927.62
2018-12-17T13:35:47.539Z,101926.33
2018-12-17T13:38:16.875Z,101924.11
2018-12-17T13:40:46.184Z,101935.08
2018-12-17T13:43:15.478Z,101932.88
2018-12-17T13:45:44.833Z,101932.00
2018-12-17T13:48:14.204Z,101938.59
2018-12-17T13:50:43.458Z,101939.86
2018-12-17T13:53:30.403Z,101939.87
2018-12-17T13:55:59.795Z,101943.38
2018-12-17T13:58:29.281Z,101942.52
2018-12-17T14:00:58.548Z,101953.42
2018-12-17T14:03:28.005Z,101951.67
2018-12-17T14:05:57.296Z,101956.47
2018-12-17T14:08:26.574Z,101954.29
2018-12-17T14:10:55.849Z,101957.35
2018-12-17T14:13:25.179Z,101955.57
2018-12-17T14:16:13.610Z,101964.75
2018-12-17T14:19:01.650Z,101966.10
2018-12-17T14:21:48.870Z,101967.44
2018-12-17T14:24:18.168Z,101960.84
2018-12-17T14:26:47.541Z,101964.34
2018-12-17T14:29:16.849Z,101965.18
2018-12-17T14:31:46.119Z,101970.86
2018-12-17T14:34:15.400Z,101975.19
2018-12-17T14:36:44.672Z,101965.56
2018-12-17T14:39:13.946Z,101972.98
2018-12-17T14:41:43.217Z,101967.29
2018-12-17T14:44:30.489Z,101986.54
2018-12-17T14:46:59.798Z,101986.09
2018-12-17T14:49:29.113Z,101988.69
2018-12-17T14:51:58.380Z,101988.25
2018-12-17T14:54:27.691Z,101993.50
2018-12-17T14:56:57.225Z,101994.41
2018-12-17T14:59:26.522Z,102004.86
2018-12-17T15:01:55.855Z,102004.02
2018-12-17T15:04:25.235Z,102012.34
2018-12-17T15:06:54.555Z,102022.41
2018-12-17T15:09:23.844Z,102018.45
2018-12-17T15:11:53.170Z,102021.07
2018-12-17T15:14:22.456Z,102025.89
2018-12-17T15:16:51.898Z,102023.25
2018-12-17T15:19:21.237Z,102017.13
2018-12-17T15:21:50.516Z,102016.67
2018-12-17T15:24:19.787Z,102022.83
2018-12-17T15:26:49.132Z,102027.16
2018-12-17T15:32:50.161Z,102028.03
2018-12-17T15:35:31.623Z,102036.79
2018-12-17T15:38:14.829Z,102045.10
2018-12-17T15:40:57.710Z,102048.16
2018-12-17T15:43:50.435Z,102045.11
2018-12-17T15:46:26.703Z,102049.05
2018-12-17T15:48:57.240Z,102055.18
2018-12-17T15:51:26.616Z,102058.65
2018-12-17T15:53:56.536Z,102059.97
2018-12-17T15:56:25.918Z,102063.03
2018-12-17T15:59:35.405Z,102070.02
2018-12-17T16:02:04.916Z,102066.08
2018-12-17T16:04:52.320Z,102065.65
2018-12-17T16:07:51.715Z,102064.31
2018-12-17T16:10:43.616Z,102069.58
2018-12-17T16:13:14.806Z,102073.49
2018-12-17T16:15:56.599Z,102075.68
2018-12-17T16:18:34.395Z,102074.84
2018-12-17T16:21:27.565Z,102073.53
2018-12-17T16:24:28.314Z,102090.60
2018-12-17T16:27:27.816Z,102094.08
2018-12-17T16:30:13.760Z,102096.32
2018-12-17T16:33:03.198Z,102097.63
2018-12-17T16:35:39.446Z,102100.73
2018-12-17T16:38:09.357Z,102105.55
2018-12-17T16:40:38.854Z,102102.50
2018-12-17T16:43:08.218Z,102109.94
2018-12-17T16:45:39.800Z,102102.09
2018-12-17T16:48:32.880Z,102110.39
2018-12-17T16:51:17.907Z,102106.02
2018-12-17T16:53:56.327Z,102114.33
2018-12-17T16:56:34.282Z,102106.90
2018-12-17T16:59:23.498Z,102115.65
2018-12-17T17:02:19.484Z,102123.52
2018-12-17T17:05:10.966Z,102117.39
2018-12-17T17:08:17.130Z,102122.64
2018-12-17T17:11:15.768Z,102126.59
2018-12-17T17:14:05.725Z,102135.77
2018-12-17T17:17:05.629Z,102147.12
2018-12-17T17:20:30.118Z,101351.38
2018-12-17T17:23:05.872Z,102160.23
2018-12-17T17:29:06.647Z,101497.61
2018-12-17T17:32:11.544Z,102158.91
2018-12-17T17:34:13.886Z,102163.73
2018-12-17T17:36:43.215Z,102167.66
2018-12-17T17:39:12.559Z,102167.23
2018-12-17T17:41:41.869Z,102167.22
2018-12-17T17:44:11.403Z,102178.18
2018-12-17T17:46:40.735Z,102178.64
2018-12-17T17:49:10.105Z,102187.84
2018-12-17T17:51:39.545Z,102185.63
2018-12-17T17:54:08.895Z,102185.63
2018-12-17T17:56:38.247Z,102183.05
2018-12-17T17:59:07.556Z,102180.42
2018-12-17T18:01:37.091Z,102192.26
2018-12-17T18:04:06.545Z,102189.20
2018-12-17T18:06:35.977Z,102187.88
2018-12-17T18:09:08.749Z,102194.03
2018-12-17T18:11:38.099Z,102198.81
2018-12-17T18:14:07.432Z,102204.96
2018-12-17T18:16:36.737Z,102211.95
2018-12-17T18:19:07.610Z,102210.64
2018-12-17T18:21:37.046Z,102216.39
2018-12-17T18:24:06.353Z,102215.50
2018-12-17T18:26:35.910Z,102213.28
2018-12-17T18:29:05.246Z,102219.44
2018-12-17T18:31:34.627Z,102219.00
2018-12-17T18:34:03.979Z,102227.31
2018-12-17T18:36:33.313Z,102220.77
2018-12-17T18:39:02.820Z,102225.14
2018-12-17T18:41:32.200Z,102224.73
2018-12-17T18:44:01.531Z,102222.10
2018-12-17T18:46:30.929Z,102228.66
2018-12-17T18:49:00.451Z,102232.19
2018-12-17T18:51:29.858Z,102236.99
2018-12-17T18:53:59.185Z,102237.84
2018-12-17T18:56:28.515Z,102235.66
2018-12-17T18:58:57.899Z,102240.93
2018-12-17T19:01:27.229Z,102239.21
2018-12-17T19:03:56.519Z,102243.09
2018-12-17T19:06:25.925Z,102250.11
2018-12-17T19:08:55.205Z,102250.52
2018-12-17T19:11:24.526Z,102255.34
2018-12-17T19:13:53.954Z,102255.75
2018-12-17T19:16:23.340Z,102256.63
2018-12-17T19:18:52.719Z,102252.27
2018-12-17T19:21:22.040Z,102264.08
2018-12-17T19:23:51.462Z,102261.42
2018-12-17T19:26:20.839Z,102262.73
2018-12-17T19:28:50.219Z,102268.43
2018-12-17T19:31:19.646Z,102265.39
2018-12-17T19:33:49.015Z,102268.86
2018-12-17T19:36:18.639Z,102268.87
2018-12-17T19:38:47.997Z,102279.38
2018-12-17T19:41:17.292Z,102277.62
2018-12-17T19:43:46.598Z,102282.44
2018-12-17T19:46:16.074Z,102289.84
2018-12-17T19:48:45.383Z,102286.78
2018-12-17T19:51:14.783Z,102292.03
2018-12-17T19:53:44.206Z,102300.81
2018-12-17T19:56:13.593Z,102299.08
2018-12-17T19:58:42.889Z,102293.81
2018-12-17T20:01:12.321Z,102292.03
2018-12-17T20:03:41.657Z,102296.84
2018-12-17T20:06:11.102Z,102300.83
2018-12-17T20:08:40.439Z,102299.53
2018-12-17T20:11:09.792Z,102299.98
2018-12-17T20:13:39.132Z,102297.34
2018-12-17T20:16:08.457Z,102301.73
2018-12-17T20:18:37.832Z,102303.50
2018-12-17T20:21:07.173Z,102307.41
2018-12-17T20:23:36.523Z,102313.14
2018-12-17T20:26:05.880Z,102310.09
2018-12-17T20:28:35.204Z,102313.17
2018-12-17T20:31:04.498Z,102314.05
2018-12-17T20:33:33.851Z,102313.61
2018-12-17T20:36:03.217Z,102317.10
2018-12-17T20:38:32.665Z,102324.11
2018-12-17T20:41:02.034Z,102327.20
2018-12-17T20:43:31.383Z,102333.77
2018-12-17T20:46:00.750Z,102328.05
2018-12-17T20:48:30.105Z,102337.70
2018-12-17T20:50:59.419Z,102333.33
2018-12-17T20:53:28.785Z,102336.36
2018-12-17T20:55:58.176Z,102333.75
2018-12-17T20:58:27.521Z,102332.41
2018-12-17T21:00:56.826Z,102337.22
2018-12-17T21:03:26.189Z,102350.81
2018-12-17T21:05:55.463Z,102339.00
2018-12-17T21:08:24.784Z,102353.90
2018-12-17T21:10:54.349Z,102356.70
2018-12-17T21:13:23.681Z,102351.06
2018-12-17T21:15:53.047Z,102353.69
2018-12-17T21:18:22.367Z,102360.64
2018-12-17T21:20:51.701Z,102360.59
2018-12-17T21:23:21.033Z,102360.98
2018-12-17T21:25:50.365Z,102365.78
2018-12-17T21:28:19.649Z,102356.10
2018-12-17T21:30:48.938Z,102353.02
2018-12-17T21:33:18.264Z,102356.11
2018-12-17T21:35:47.584Z,102363.11
2018-12-17T21:38:16.888Z,102365.73
2018-12-17T21:40:46.221Z,102367.93
2018-12-17T21:43:15.572Z,102366.17
2018-12-17T21:45:45.015Z,102366.17
2018-12-17T21:48:14.345Z,102367.95
2018-12-17T21:50:43.688Z,102367.47
2018-12-17T21:53:12.956Z,102371.88
2018-12-17T21:55:42.287Z,102369.24
2018-12-17T21:58:11.696Z,102369.24
2018-12-17T22:00:41.121Z,102368.36
2018-12-17T22:03:13.294Z,102377.99
2018-12-17T22:05:39.728Z,102379.33
2018-12-17T22:08:09.235Z,102373.66
2018-12-17T22:10:38.544Z,102385.07
2018-12-17T22:13:07.894Z,102388.13
2018-12-17T22:15:37.252Z,102383.32
2018-12-17T22:18:06.659Z,102389.44
2018-12-17T22:20:36.026Z,102375.45
2018-12-17T22:23:05.385Z,102379.40
2018-12-17T22:25:34.742Z,102382.03
2018-12-17T22:28:04.077Z,102382.87
2018-12-17T22:30:33.436Z,102380.25
2018-12-17T22:33:02.719Z,102378.52
2018-12-17T22:35:32.040Z,102377.67
2018-12-17T22:38:01.426Z,102389.50
2018-12-17T22:40:31.006Z,102389.93
2018-12-17T22:43:00.323Z,102391.22
2018-12-17T22:45:29.677Z,102395.13
2018-12-17T22:47:58.991Z,102402.55
2018-12-17T22:50:28.365Z,102400.41
2018-12-17T22:52:57.664Z,102410.53
2018-12-17T22:55:27.079Z,102402.26
2018-12-17T22:57:56.418Z,102407.53
2018-12-17T23:00:25.742Z,102408.00
2018-12-17T23:02:55.067Z,102395.27
2018-12-17T23:05:24.370Z,102399.20
2018-12-17T23:07:53.770Z,102408.88
2018-12-17T23:11:02.455Z,102405.82
2018-12-17T23:14:05.293Z,102394.89
2018-12-17T23:17:11.162Z,102403.23
2018-12-17T23:19:42.278Z,102410.67
2018-12-17T23:22:11.799Z,102408.93
2018-12-17T23:24:41.080Z,102408.47
2018-12-17T23:27:10.364Z,102413.73
2018-12-17T23:29:39.618Z,102414.59
2018-12-17T23:32:08.969Z,102420.28
2018-12-17T23:34:38.254Z,102416.73
2018-12-17T23:37:07.568Z,102426.36
2018-12-17T23:39:36.850Z,102411.03
2018-12-17T23:42:06.170Z,102414.13
2018-12-17T23:44:38.705Z,102414.97
2018-12-17T23:47:08.008Z,102414.97
2018-12-17T23:49:37.372Z,102415.44
2018-12-17T23:52:06.635Z,102415.44
2018-12-17T23:54:35.938Z,102417.19
2018-12-17T23:57:05.316Z,102415.44
2018-12-17T23:59:34.793Z,102407.14
